createdAt,value
2019-02-25T00:01:05.169Z,74.70
2019-02-25T00:03:37.194Z,74.40
2019-02-25T00:06:09.236Z,74.30
2019-02-25T00:08:41.932Z,75.20
2019-02-25T00:11:14.010Z,75.20
2019-02-25T00:13:45.935Z,75.60
2019-02-25T00:16:17.862Z,75.10
2019-02-25T00:18:49.848Z,75.50
2019-02-25T00:21:22.007Z,75.70
2019-02-25T00:23:53.927Z,76.10
2019-02-25T00:26:25.833Z,76.10
2019-02-25T00:28:57.770Z,76.30
2019-02-25T00:31:29.709Z,76.50
2019-02-25T00:34:01.648Z,76.20
2019-02-25T00:36:33.588Z,76.20
2019-02-25T00:39:07.702Z,76.40
2019-02-25T00:41:39.956Z,76.90
2019-02-25T00:44:11.932Z,77.10
2019-02-25T00:46:43.869Z,77.40
2019-02-25T00:49:16.047Z,78.00
2019-02-25T00:51:47.948Z,78.10
2019-02-25T00:54:20.009Z,78.10
2019-02-25T00:56:52.094Z,77.70
2019-02-25T00:59:24.121Z,78.40
2019-02-25T01:01:56.214Z,79.10
2019-02-25T01:04:28.221Z,79.70
2019-02-25T01:07:01.294Z,80.00
2019-02-25T01:09:33.221Z,79.80
2019-02-25T01:12:05.159Z,80.00
2019-02-25T01:14:37.098Z,79.20
2019-02-25T01:17:09.039Z,78.70
2019-02-25T01:19:41.116Z,78.40
2019-02-25T01:22:13.022Z,78.70
2019-02-25T01:24:44.960Z,78.10
2019-02-25T01:27:16.924Z,77.80
2019-02-25T01:29:48.826Z,78.00
2019-02-25T01:32:20.759Z,78.40
2019-02-25T01:34:52.801Z,79.10
2019-02-25T01:37:24.740Z,79.50
2019-02-25T01:39:57.060Z,79.60
2019-02-25T01:42:29.141Z,79.90
2019-02-25T01:45:01.088Z,80.20
2019-02-25T01:47:33.164Z,80.20
2019-02-25T01:50:05.755Z,79.30
2019-02-25T01:52:37.801Z,79.40
2019-02-25T01:55:10.386Z,79.10
2019-02-25T01:57:42.451Z,78.30
2019-02-25T02:00:15.963Z,78.10
2019-02-25T02:02:47.896Z,78.30
2019-02-25T02:05:19.842Z,78.50
2019-02-25T02:07:51.885Z,79.10
2019-02-25T02:10:24.067Z,80.00
2019-02-25T02:12:56.279Z,80.40
2019-02-25T02:15:28.410Z,81.00
2019-02-25T02:18:00.424Z,81.80
2019-02-25T02:20:32.525Z,82.30
2019-02-25T02:23:04.725Z,83.10
2019-02-25T02:25:36.818Z,83.80
2019-02-25T02:28:08.832Z,84.00
2019-02-25T02:30:40.855Z,84.30
2019-02-25T02:33:12.950Z,84.30
2019-02-25T02:35:44.973Z,84.50
2019-02-25T02:38:17.080Z,84.90
2019-02-25T02:40:49.171Z,85.00
2019-02-25T02:43:21.197Z,84.90
2019-02-25T02:46:10.731Z,84.80
2019-02-25T02:48:51.397Z,84.60
2019-02-25T02:51:23.499Z,84.40
2019-02-25T02:53:55.601Z,84.20
2019-02-25T02:56:27.695Z,83.70
2019-02-25T02:58:59.800Z,83.40
2019-02-25T03:01:31.818Z,83.60
2019-02-25T03:04:03.912Z,84.20
2019-02-25T03:06:36.009Z,84.60
2019-02-25T03:09:10.868Z,84.30
2019-02-25T03:11:42.959Z,84.40
2019-02-25T03:14:14.988Z,83.90
2019-02-25T03:16:47.069Z,83.60
2019-02-25T03:19:19.086Z,84.20
2019-02-25T03:21:51.114Z,84.50
2019-02-25T03:24:23.207Z,84.60
2019-02-25T03:26:55.307Z,84.60
2019-02-25T03:29:27.319Z,84.60
2019-02-25T03:31:59.420Z,84.70
2019-02-25T03:34:31.515Z,85.10
2019-02-25T03:37:03.864Z,85.30
2019-02-25T03:39:35.954Z,85.50
2019-02-25T03:42:07.984Z,85.40
2019-02-25T03:44:40.183Z,85.30
2019-02-25T03:47:12.281Z,85.30
2019-02-25T03:49:44.378Z,85.20
2019-02-25T03:52:16.402Z,85.50
2019-02-25T03:54:48.500Z,84.70
2019-02-25T03:57:20.695Z,84.40
2019-02-25T03:59:52.799Z,83.50
2019-02-25T04:02:25.098Z,83.40
2019-02-25T04:04:57.124Z,83.40
2019-02-25T04:07:30.554Z,83.60
2019-02-25T04:10:02.643Z,83.70
2019-02-25T04:12:35.913Z,83.50
2019-02-25T04:15:11.556Z,83.10
2019-02-25T04:17:43.634Z,83.50
2019-02-25T04:20:16.492Z,83.80
2019-02-25T04:22:48.603Z,83.80
2019-02-25T04:25:20.704Z,84.00
2019-02-25T04:27:52.734Z,83.70
2019-02-25T04:30:24.828Z,83.70
2019-02-25T04:32:56.870Z,84.40
2019-02-25T04:35:28.970Z,83.80
2019-02-25T04:38:02.969Z,84.20
2019-02-25T04:40:34.796Z,84.50
2019-02-25T04:43:06.891Z,84.90
2019-02-25T04:45:39.178Z,85.40
2019-02-25T04:48:11.547Z,85.20
2019-02-25T04:50:43.643Z,85.10
2019-02-25T04:53:15.798Z,84.50
2019-02-25T04:55:48.232Z,83.90
2019-02-25T04:58:20.313Z,84.00
2019-02-25T05:00:52.460Z,84.00
2019-02-25T05:03:24.498Z,84.80
2019-02-25T05:05:56.660Z,84.50
2019-02-25T05:08:28.793Z,83.90
2019-02-25T05:11:00.886Z,83.20
2019-02-25T05:13:33.011Z,82.70
2019-02-25T05:16:05.045Z,83.00
2019-02-25T05:18:37.144Z,82.90
2019-02-25T05:21:09.241Z,83.20
2019-02-25T05:23:41.315Z,83.20
2019-02-25T05:26:13.332Z,82.80
2019-02-25T05:28:51.925Z,83.10
2019-02-25T05:31:19.267Z,82.70
2019-02-25T05:33:51.298Z,82.20
2019-02-25T05:36:23.407Z,82.50
2019-02-25T05:38:55.517Z,82.60
2019-02-25T05:41:27.608Z,82.60
2019-02-25T05:43:59.708Z,82.60
2019-02-25T05:46:31.719Z,81.60
2019-02-25T05:49:03.749Z,81.40
2019-02-25T05:51:35.874Z,81.90
2019-02-25T05:54:10.738Z,82.00
2019-02-25T05:56:43.771Z,82.20
2019-02-25T05:59:15.937Z,82.60
2019-02-25T06:01:48.045Z,82.50
2019-02-25T06:04:20.057Z,83.50
2019-02-25T06:06:52.083Z,83.10
2019-02-25T06:09:24.102Z,82.50
2019-02-25T06:11:56.203Z,82.10
2019-02-25T06:14:28.245Z,83.20
2019-02-25T06:17:00.363Z,82.60
2019-02-25T06:19:32.476Z,83.00
2019-02-25T06:22:04.578Z,83.10
2019-02-25T06:24:36.685Z,83.30
2019-02-25T06:27:09.293Z,83.40
2019-02-25T06:29:41.320Z,83.40
2019-02-25T06:32:13.367Z,83.40
2019-02-25T06:34:45.449Z,83.10
2019-02-25T06:37:17.579Z,83.60
2019-02-25T06:39:49.691Z,83.20
2019-02-25T06:42:21.786Z,82.60
2019-02-25T06:44:53.871Z,82.60
2019-02-25T06:47:25.888Z,81.80
2019-02-25T06:49:57.975Z,81.30
2019-02-25T06:52:30.002Z,81.20
2019-02-25T06:55:02.020Z,81.10
2019-02-25T06:57:34.149Z,81.10
2019-02-25T07:00:08.950Z,81.10
2019-02-25T07:02:41.051Z,80.90
2019-02-25T07:05:32.132Z,81.10
2019-02-25T07:08:16.730Z,81.10
2019-02-25T07:11:12.288Z,80.80
2019-02-25T07:14:11.905Z,81.10
2019-02-25T07:17:02.678Z,83.90
2019-02-25T07:20:11.626Z,83.90
2019-02-25T07:23:05.144Z,83.70
2019-02-25T07:25:52.983Z,83.00
2019-02-25T07:28:42.622Z,80.60
2019-02-25T07:31:37.886Z,81.00
2019-02-25T07:34:19.404Z,80.50
2019-02-25T07:37:20.445Z,77.50
2019-02-25T07:40:17.063Z,63.90
2019-02-25T07:43:15.420Z,45.70
2019-02-25T07:46:06.450Z,37.10
2019-02-25T07:49:06.444Z,32.00
2019-02-25T07:51:54.227Z,28.90
2019-02-25T07:54:57.225Z,27.40
2019-02-25T07:57:51.250Z,26.60
2019-02-25T08:00:42.100Z,25.90
2019-02-25T08:03:31.349Z,26.30
2019-02-25T08:06:34.328Z,28.30
2019-02-25T08:09:20.153Z,29.80
2019-02-25T08:12:14.008Z,32.50
2019-02-25T08:15:19.936Z,33.60
2019-02-25T08:18:25.608Z,38.30
2019-02-25T08:21:10.322Z,42.00
2019-02-25T08:24:03.830Z,43.90
2019-02-25T08:26:47.505Z,46.00
2019-02-25T08:29:30.173Z,46.10
2019-02-25T08:32:14.606Z,44.80
2019-02-25T08:35:10.042Z,35.60
2019-02-25T08:38:11.989Z,30.20
2019-02-25T08:41:31.148Z,27.80
2019-02-25T08:44:21.996Z,29.40
2019-02-25T08:47:16.532Z,31.50
2019-02-25T08:49:51.405Z,33.60
2019-02-25T08:52:23.659Z,34.50
2019-02-25T08:54:55.677Z,31.10
2019-02-25T08:57:27.779Z,26.50
2019-02-25T08:59:59.879Z,23.10
2019-02-25T09:02:31.872Z,20.80
2019-02-25T09:05:07.746Z,19.70
2019-02-25T09:07:39.724Z,18.90
2019-02-25T09:10:13.532Z,18.50
2019-02-25T09:12:45.637Z,18.10
2019-02-25T09:15:17.672Z,17.70
2019-02-25T09:17:46.904Z,17.20
2019-02-25T09:20:19.010Z,16.50
2019-02-25T09:22:51.060Z,16.10
2019-02-25T09:25:23.066Z,16.00
2019-02-25T09:27:55.099Z,16.10
2019-02-25T09:30:27.151Z,15.70
2019-02-25T09:32:59.200Z,15.90
2019-02-25T09:35:31.293Z,16.00
2019-02-25T09:38:03.267Z,16.00
2019-02-25T09:40:35.356Z,15.70
2019-02-25T09:43:07.499Z,15.80
2019-02-25T09:45:39.607Z,15.90
2019-02-25T09:48:11.577Z,15.80
2019-02-25T09:50:43.597Z,15.50
2019-02-25T09:53:15.642Z,15.80
2019-02-25T09:55:47.751Z,15.70
2019-02-25T09:58:20.072Z,16.00
2019-02-25T10:00:52.164Z,16.30
2019-02-25T10:03:24.222Z,16.40
2019-02-25T10:05:56.361Z,16.30
2019-02-25T10:08:28.409Z,17.30
2019-02-25T10:11:00.500Z,17.70
2019-02-25T10:13:32.556Z,18.40
2019-02-25T10:16:04.567Z,18.60
2019-02-25T10:18:36.613Z,19.60
2019-02-25T10:21:08.618Z,19.70
2019-02-25T10:23:40.623Z,20.60
2019-02-25T10:26:12.693Z,20.40
2019-02-25T10:28:44.658Z,20.80
2019-02-25T10:31:17.525Z,21.00
2019-02-25T10:33:50.845Z,20.70
2019-02-25T10:36:22.985Z,21.00
2019-02-25T10:38:55.045Z,20.90
2019-02-25T10:41:27.857Z,21.00
2019-02-25T10:44:00.710Z,21.30
2019-02-25T10:46:33.650Z,20.90
2019-02-25T10:49:11.531Z,20.80
2019-02-25T10:51:41.061Z,20.20
2019-02-25T10:54:14.407Z,20.80
2019-02-25T10:57:00.035Z,21.30
2019-02-25T10:59:34.447Z,21.60
2019-02-25T11:02:06.522Z,21.30
2019-02-25T11:04:38.528Z,21.60
2019-02-25T11:07:10.768Z,21.70
2019-02-25T11:09:55.517Z,21.20
2019-02-25T11:12:28.428Z,21.00
2019-02-25T11:15:01.534Z,20.30
2019-02-25T11:17:33.626Z,20.00
2019-02-25T11:20:08.087Z,18.80
2019-02-25T11:22:41.997Z,18.00
2019-02-25T11:25:14.445Z,17.50
2019-02-25T11:27:46.561Z,16.60
2019-02-25T11:30:19.473Z,17.00
2019-02-25T11:32:53.942Z,16.40
2019-02-25T11:35:26.177Z,16.20
2019-02-25T11:37:59.636Z,16.10
2019-02-25T11:40:33.677Z,15.80
2019-02-25T11:43:05.758Z,16.00
2019-02-25T11:45:38.213Z,16.10
2019-02-25T11:48:10.495Z,15.80
2019-02-25T11:50:42.472Z,15.90
2019-02-25T11:53:14.565Z,16.10
2019-02-25T11:55:46.614Z,15.70
2019-02-25T11:58:18.619Z,16.10
2019-02-25T12:00:50.677Z,15.90
2019-02-25T12:03:22.773Z,15.90
2019-02-25T12:05:54.820Z,15.40
2019-02-25T12:08:26.819Z,15.60
2019-02-25T12:10:58.787Z,15.70
2019-02-25T12:13:31.112Z,15.50
2019-02-25T12:16:03.214Z,15.60
2019-02-25T12:18:35.568Z,15.80
2019-02-25T12:21:07.924Z,15.60
2019-02-25T12:23:40.009Z,15.70
2019-02-25T12:26:12.162Z,15.60
2019-02-25T12:28:44.462Z,15.80
2019-02-25T12:31:16.747Z,16.20
2019-02-25T12:33:48.968Z,15.50
2019-02-25T12:36:21.119Z,16.00
2019-02-25T12:38:53.302Z,16.40
2019-02-25T12:41:27.237Z,17.40
2019-02-25T12:43:59.290Z,17.90
2019-02-25T12:46:31.564Z,18.00
2019-02-25T12:49:03.781Z,19.10
2019-02-25T12:51:35.961Z,19.20
2019-02-25T12:54:08.099Z,19.30
2019-02-25T12:56:40.134Z,19.50
2019-02-25T12:59:12.227Z,19.60
2019-02-25T13:01:44.281Z,19.70
2019-02-25T13:04:16.378Z,20.40
2019-02-25T13:06:48.432Z,20.10
2019-02-25T13:09:20.645Z,20.90
2019-02-25T13:11:52.818Z,21.40
2019-02-25T13:14:25.032Z,21.70
2019-02-25T13:16:57.114Z,22.00
2019-02-25T13:19:29.209Z,21.50
2019-02-25T13:22:01.257Z,21.80
2019-02-25T13:24:35.145Z,21.80
2019-02-25T13:27:08.468Z,21.60
2019-02-25T13:29:40.910Z,21.60
2019-02-25T13:32:12.961Z,21.80
2019-02-25T13:34:45.053Z,22.40
2019-02-25T13:37:17.100Z,23.10
2019-02-25T13:39:49.195Z,23.60
2019-02-25T13:42:21.288Z,23.70
2019-02-25T13:44:53.384Z,24.40
2019-02-25T13:47:25.431Z,24.30
2019-02-25T13:49:59.067Z,24.30
2019-02-25T13:52:31.109Z,23.90
2019-02-25T13:55:03.202Z,23.50
2019-02-25T13:57:35.253Z,23.90
2019-02-25T14:00:18.209Z,24.20
2019-02-25T14:02:50.474Z,24.30
2019-02-25T14:05:22.770Z,24.40
2019-02-25T14:07:54.917Z,24.70
2019-02-25T14:10:27.006Z,24.90
2019-02-25T14:12:59.063Z,25.00
2019-02-25T14:15:31.206Z,25.20
2019-02-25T14:18:03.360Z,25.90
2019-02-25T14:20:35.559Z,26.80
2019-02-25T14:23:07.710Z,27.30
2019-02-25T14:25:41.562Z,28.00
2019-02-25T14:28:13.856Z,28.20
2019-02-25T14:30:46.065Z,27.90
2019-02-25T14:33:18.437Z,28.10
2019-02-25T14:35:53.106Z,28.40
2019-02-25T14:38:25.307Z,28.90
2019-02-25T14:40:58.202Z,29.70
2019-02-25T14:43:30.254Z,30.70
2019-02-25T14:46:04.815Z,32.10
2019-02-25T14:48:36.793Z,33.30
2019-02-25T14:51:08.913Z,34.30
2019-02-25T14:53:42.266Z,35.10
2019-02-25T14:56:14.768Z,35.30
2019-02-25T14:58:47.763Z,35.50
2019-02-25T15:01:21.004Z,36.10
2019-02-25T15:03:53.610Z,36.70
2019-02-25T15:06:28.015Z,37.00
2019-02-25T15:09:01.483Z,37.50
2019-02-25T15:11:33.507Z,37.80
2019-02-25T15:14:05.943Z,38.20
2019-02-25T15:16:39.482Z,38.50
2019-02-25T15:19:13.375Z,38.80
2019-02-25T15:21:47.452Z,39.10
2019-02-25T15:24:19.156Z,39.80
2019-02-25T15:26:51.448Z,40.30
2019-02-25T15:29:23.508Z,42.30
2019-02-25T15:31:57.017Z,41.50
2019-02-25T15:34:29.268Z,42.70
2019-02-25T15:37:02.675Z,43.10
2019-02-25T15:39:35.383Z,44.40
2019-02-25T15:42:07.577Z,42.80
2019-02-25T15:44:40.326Z,42.70
2019-02-25T15:47:15.089Z,42.90
2019-02-25T15:49:48.017Z,44.80
2019-02-25T15:52:21.071Z,45.70
2019-02-25T15:54:53.784Z,45.60
2019-02-25T15:57:26.467Z,47.40
2019-02-25T15:59:59.917Z,48.20
2019-02-25T16:02:32.010Z,49.50
2019-02-25T16:05:05.862Z,50.00
2019-02-25T16:07:40.124Z,50.80
2019-02-25T16:10:14.180Z,51.50
2019-02-25T16:12:47.885Z,51.90
2019-02-25T16:15:20.573Z,52.70
2019-02-25T16:17:53.195Z,53.20
2019-02-25T16:20:25.735Z,54.00
2019-02-25T16:23:00.187Z,54.10
2019-02-25T16:25:32.172Z,54.80
2019-02-25T16:28:06.068Z,55.60
2019-02-25T16:30:40.492Z,56.50
2019-02-25T16:33:14.327Z,57.00
2019-02-25T16:35:46.324Z,57.60
2019-02-25T16:38:21.068Z,58.40
2019-02-25T16:40:54.662Z,58.90
2019-02-25T16:43:25.957Z,59.20
2019-02-25T16:45:59.462Z,59.60
2019-02-25T16:48:32.609Z,60.30
2019-02-25T16:51:07.150Z,60.90
2019-02-25T16:53:39.412Z,61.40
2019-02-25T16:56:14.187Z,61.90
2019-02-25T16:58:47.692Z,62.10
2019-02-25T17:01:20.042Z,62.50
2019-02-25T17:03:52.247Z,62.70
2019-02-25T17:06:25.858Z,63.40
2019-02-25T17:08:57.999Z,63.80
2019-02-25T17:11:30.189Z,63.90
2019-02-25T17:14:03.780Z,64.00
2019-02-25T17:16:35.951Z,64.20
2019-02-25T17:19:08.058Z,64.50
2019-02-25T17:21:43.079Z,65.00
2019-02-25T17:24:14.073Z,65.50
2019-02-25T17:26:46.149Z,65.90
2019-02-25T17:29:18.239Z,66.10
2019-02-25T17:31:50.302Z,67.20
2019-02-25T17:34:22.269Z,67.50
2019-02-25T17:36:54.664Z,67.80
2019-02-25T17:39:26.680Z,68.10
2019-02-25T17:41:59.427Z,68.20
2019-02-25T17:44:34.308Z,68.40
2019-02-25T17:47:06.714Z,68.50
2019-02-25T17:49:40.609Z,68.80
2019-02-25T17:52:14.185Z,69.20
2019-02-25T17:54:46.973Z,69.30
2019-02-25T17:57:19.254Z,69.60
2019-02-25T17:59:52.723Z,70.30
2019-02-25T18:02:24.823Z,70.60
2019-02-25T18:04:57.478Z,71.10
2019-02-25T18:07:30.072Z,71.80
2019-02-25T18:10:03.445Z,72.50
2019-02-25T18:12:39.862Z,72.90
2019-02-25T18:15:17.939Z,72.70
2019-02-25T18:17:51.474Z,73.80
2019-02-25T18:20:23.888Z,75.00
2019-02-25T18:22:55.925Z,75.60
2019-02-25T18:25:28.133Z,76.00
2019-02-25T18:28:00.071Z,76.70
2019-02-25T18:30:33.359Z,76.80
2019-02-25T18:33:06.127Z,76.80
2019-02-25T18:35:40.994Z,77.10
2019-02-25T18:38:11.979Z,77.60
2019-02-25T18:40:45.833Z,78.80
2019-02-25T18:43:17.749Z,79.20
2019-02-25T18:45:49.712Z,79.10
2019-02-25T18:48:23.226Z,79.10
2019-02-25T18:50:58.514Z,78.40
2019-02-25T18:53:29.408Z,77.90
2019-02-25T18:56:01.454Z,78.30
2019-02-25T18:58:35.284Z,79.20
2019-02-25T19:01:09.739Z,79.50
2019-02-25T19:03:41.448Z,79.70
2019-02-25T19:06:14.938Z,82.20
2019-02-25T19:08:49.365Z,82.00
2019-02-25T19:11:23.582Z,81.70
2019-02-25T19:13:56.730Z,82.10
2019-02-25T19:16:29.272Z,80.50
2019-02-25T19:19:03.878Z,80.50
2019-02-25T19:21:35.129Z,81.30
2019-02-25T19:24:07.665Z,81.00
2019-02-25T19:26:42.455Z,81.30
2019-02-25T19:29:15.246Z,81.50
2019-02-25T19:31:48.066Z,82.10
2019-02-25T19:34:20.056Z,82.00
2019-02-25T19:36:52.085Z,82.50
2019-02-25T19:39:24.063Z,83.10
2019-02-25T19:41:56.777Z,83.90
2019-02-25T19:44:31.878Z,84.20
2019-02-25T19:47:03.698Z,85.40
2019-02-25T19:49:36.787Z,85.80
2019-02-25T19:52:09.729Z,85.50
2019-02-25T19:54:43.258Z,84.40
2019-02-25T19:57:16.595Z,83.40
2019-02-25T19:59:50.700Z,83.50
2019-02-25T20:02:24.780Z,85.60
2019-02-25T20:04:57.177Z,85.90
2019-02-25T20:07:30.899Z,86.10
2019-02-25T20:10:02.959Z,85.90
2019-02-25T20:12:35.681Z,85.00
2019-02-25T20:15:11.740Z,85.20
2019-02-25T20:17:46.745Z,86.00
2019-02-25T20:20:18.910Z,87.90
2019-02-25T20:22:50.949Z,88.80
2019-02-25T20:25:24.472Z,88.60
2019-02-25T20:27:57.580Z,88.70
2019-02-25T20:30:30.650Z,88.70
2019-02-25T20:33:03.805Z,88.40
2019-02-25T20:35:36.242Z,88.00
2019-02-25T20:38:08.388Z,87.80
2019-02-25T20:40:40.321Z,87.70
2019-02-25T20:43:12.271Z,88.00
2019-02-25T20:45:44.391Z,88.40
2019-02-25T20:48:16.425Z,87.50
2019-02-25T20:50:48.373Z,87.60
2019-02-25T20:53:20.318Z,87.20
2019-02-25T20:55:54.513Z,86.40
2019-02-25T20:58:26.195Z,86.40
2019-02-25T21:00:58.157Z,87.30
2019-02-25T21:03:30.188Z,88.60
2019-02-25T21:06:02.706Z,89.40
2019-02-25T21:08:35.349Z,90.00
2019-02-25T21:11:11.085Z,90.30
2019-02-25T21:13:42.531Z,90.50
2019-02-25T21:16:16.163Z,90.50
2019-02-25T21:18:48.784Z,90.40
2019-02-25T21:21:21.804Z,90.70
2019-02-25T21:23:53.747Z,91.10
2019-02-25T21:26:29.292Z,91.10
2019-02-25T21:29:00.273Z,91.10
2019-02-25T21:31:32.997Z,91.10
2019-02-25T21:34:05.236Z,91.00
2019-02-25T21:36:38.159Z,90.90
2019-02-25T21:39:12.842Z,90.80
2019-02-25T21:41:45.850Z,90.70
2019-02-25T21:44:19.458Z,90.70
2019-02-25T21:46:53.798Z,90.60
2019-02-25T21:49:27.143Z,90.80
2019-02-25T21:52:00.248Z,91.10
2019-02-25T21:54:32.716Z,91.30
2019-02-25T21:57:05.463Z,91.10
2019-02-25T21:59:38.731Z,91.10
2019-02-25T22:02:11.933Z,91.10
2019-02-25T22:04:45.402Z,91.00
2019-02-25T22:07:24.118Z,91.10
2019-02-25T22:09:51.252Z,91.10
2019-02-25T22:12:23.179Z,90.40
2019-02-25T22:14:55.099Z,90.00
2019-02-25T22:17:27.026Z,88.90
2019-02-25T22:19:58.966Z,89.00
2019-02-25T22:22:31.601Z,90.20
2019-02-25T22:25:06.667Z,91.40
2019-02-25T22:27:39.093Z,92.10
2019-02-25T22:30:15.095Z,92.70
2019-02-25T22:32:46.990Z,92.80
2019-02-25T22:35:18.932Z,93.00
2019-02-25T22:37:52.691Z,92.70
2019-02-25T22:40:24.458Z,91.90
2019-02-25T22:42:58.405Z,91.60
2019-02-25T22:45:31.469Z,91.80
2019-02-25T22:48:03.670Z,91.60
2019-02-25T22:50:37.644Z,90.90
2019-02-25T22:53:11.151Z,91.00
2019-02-25T22:55:44.830Z,91.60
2019-02-25T22:58:17.085Z,92.00
2019-02-25T23:00:58.259Z,92.10
2019-02-25T23:03:28.912Z,92.00
2019-02-25T23:06:00.843Z,91.80
2019-02-25T23:08:32.903Z,92.30
2019-02-25T23:11:05.083Z,92.70
2019-02-25T23:13:37.021Z,93.00
2019-02-25T23:16:10.252Z,93.00
2019-02-25T23:18:42.193Z,93.10
2019-02-25T23:21:23.222Z,92.80
2019-02-25T23:23:51.253Z,92.70
2019-02-25T23:26:21.692Z,92.60
2019-02-25T23:28:55.450Z,92.40
2019-02-25T23:31:29.750Z,91.60
2019-02-25T23:34:00.893Z,91.80
2019-02-25T23:36:32.849Z,92.70
2019-02-25T23:39:06.921Z,93.60
2019-02-25T23:41:39.496Z,94.10
2019-02-25T23:44:13.278Z,93.60
2019-02-25T23:46:46.155Z,93.30
2019-02-25T23:49:26.867Z,93.10
2019-02-25T23:51:51.754Z,93.00
2019-02-25T23:54:25.547Z,92.80
2019-02-25T23:56:59.633Z,92.90
2019-02-25T23:59:30.975Z,92.10
